KLOT/LOT METAR and TAF weather

Enter ICAO airport designator
Station Type Date Time Source
KLOT METAR 2020/09/22 04:35 UTC NOAA

KLOT 220435Z AUTO 15005KT 10SM CLR 14/08 A3026 RMK AO2 T01360081


Station Type Date Time Source
KLOT Decoded METAR 2020/09/22 04:35 UTC NOAA

Chicago/Romeoville, Lewis University Airport, IL, United States (KLOT) 41-36-30N 088-05-39W
Sep 22, 2020 - 12:35 AM EDT / 2020.09.22 0435 UTC
Wind: from the SSE (150 degrees) at 6 MPH (5 KT):0
Visibility: 10 mile(s):0
Sky conditions: clear
Temperature: 56.5 F (13.6 C)
Dew Point: 46.6 F (8.1 C)
Relative Humidity: 69%
Pressure (altimeter): 30.26 in. Hg (1024 hPa)
ob: KLOT 220435Z AUTO 15005KT 10SM CLR 14/08 A3026 RMK AO2 T01360081
cycle: 4

Station Type Date Time Source
KLOT TAF UTC NOAA

Error!

Example: see airport list